sensor_id;sensor_type;location;lat;lon;timestamp;P1;durP1;ratioP1;P2;durP2;ratioP2
26502;SDS011;14177;51.520;6.764;2023-04-25T00:02:13;12.32;;;3.80;;
26502;SDS011;14177;51.520;6.764;2023-04-25T00:04:41;9.52;;;3.40;;
26502;SDS011;14177;51.520;6.764;2023-04-25T00:07:09;12.43;;;3.42;;
26502;SDS011;14177;51.520;6.764;2023-04-25T00:09:36;10.18;;;3.47;;
26502;SDS011;14177;51.520;6.764;2023-04-25T00:12:03;12.35;;;4.07;;
26502;SDS011;14177;51.520;6.764;2023-04-25T00:14:31;11.40;;;3.42;;
26502;SDS011;14177;51.520;6.764;2023-04-25T00:17:00;10.20;;;3.60;;
26502;SDS011;14177;51.520;6.764;2023-04-25T00:19:29;10.48;;;3.90;;
26502;SDS011;14177;51.520;6.764;2023-04-25T00:21:56;10.68;;;3.30;;
26502;SDS011;14177;51.520;6.764;2023-04-25T00:24:23;9.60;;;3.47;;
26502;SDS011;14177;51.520;6.764;2023-04-25T00:26:50;10.77;;;3.53;;
26502;SDS011;14177;51.520;6.764;2023-04-25T00:29:17;10.57;;;3.25;;
26502;SDS011;14177;51.520;6.764;2023-04-25T00:31:44;12.02;;;4.00;;
26502;SDS011;14177;51.520;6.764;2023-04-25T00:34:11;13.88;;;3.50;;
26502;SDS011;14177;51.520;6.764;2023-04-25T00:36:39;9.18;;;3.50;;
26502;SDS011;14177;51.520;6.764;2023-04-25T00:39:06;7.68;;;3.42;;
26502;SDS011;14177;51.520;6.764;2023-04-25T00:41:33;12.68;;;3.85;;
26502;SDS011;14177;51.520;6.764;2023-04-25T00:44:00;9.27;;;3.97;;
26502;SDS011;14177;51.520;6.764;2023-04-25T00:46:29;7.78;;;3.40;;
26502;SDS011;14177;51.520;6.764;2023-04-25T00:48:57;14.63;;;3.97;;
26502;SDS011;14177;51.520;6.764;2023-04-25T00:51:24;14.57;;;4.30;;
26502;SDS011;14177;51.520;6.764;2023-04-25T00:53:53;9.15;;;4.07;;
26502;SDS011;14177;51.520;6.764;2023-04-25T00:56:21;13.00;;;3.53;;
26502;SDS011;14177;51.520;6.764;2023-04-25T00:58:48;9.57;;;3.78;;
26502;SDS011;14177;51.520;6.764;2023-04-25T01:01:21;6.88;;;3.40;;
26502;SDS011;14177;51.520;6.764;2023-04-25T01:03:49;9.90;;;4.18;;
26502;SDS011;14177;51.520;6.764;2023-04-25T01:06:17;6.10;;;3.53;;
26502;SDS011;14177;51.520;6.764;2023-04-25T01:08:45;8.15;;;3.35;;
26502;SDS011;14177;51.520;6.764;2023-04-25T01:11:12;13.60;;;4.13;;
26502;SDS011;14177;51.520;6.764;2023-04-25T01:13:41;8.77;;;3.40;;
26502;SDS011;14177;51.520;6.764;2023-04-25T01:16:09;9.10;;;3.63;;
26502;SDS011;14177;51.520;6.764;2023-04-25T01:18:37;7.43;;;3.45;;
26502;SDS011;14177;51.520;6.764;2023-04-25T01:21:10;8.80;;;3.22;;
26502;SDS011;14177;51.520;6.764;2023-04-25T01:23:40;7.30;;;3.88;;
26502;SDS011;14177;51.520;6.764;2023-04-25T01:26:09;12.30;;;3.83;;
26502;SDS011;14177;51.520;6.764;2023-04-25T01:28:38;9.23;;;3.60;;
26502;SDS011;14177;51.520;6.764;2023-04-25T01:31:11;8.65;;;3.90;;
26502;SDS011;14177;51.520;6.764;2023-04-25T01:33:39;10.32;;;3.88;;
26502;SDS011;14177;51.520;6.764;2023-04-25T01:36:06;10.35;;;3.80;;
26502;SDS011;14177;51.520;6.764;2023-04-25T01:38:34;7.38;;;3.58;;
26502;SDS011;14177;51.520;6.764;2023-04-25T01:41:01;8.23;;;4.18;;
26502;SDS011;14177;51.520;6.764;2023-04-25T01:43:29;9.63;;;3.80;;
26502;SDS011;14177;51.520;6.764;2023-04-25T01:45:56;9.90;;;4.45;;
26502;SDS011;14177;51.520;6.764;2023-04-25T01:48:24;9.57;;;3.80;;
26502;SDS011;14177;51.520;6.764;2023-04-25T01:50:51;9.98;;;3.70;;
26502;SDS011;14177;51.520;6.764;2023-04-25T01:53:18;9.73;;;3.65;;
26502;SDS011;14177;51.520;6.764;2023-04-25T01:55:47;15.25;;;3.90;;
26502;SDS011;14177;51.520;6.764;2023-04-25T01:58:17;8.07;;;3.45;;
26502;SDS011;14177;51.520;6.764;2023-04-25T02:01:16;12.30;;;3.70;;
26502;SDS011;14177;51.520;6.764;2023-04-25T02:03:51;13.45;;;4.13;;
26502;SDS011;14177;51.520;6.764;2023-04-25T02:06:25;8.95;;;3.58;;
26502;SDS011;14177;51.520;6.764;2023-04-25T02:08:55;9.75;;;3.42;;
26502;SDS011;14177;51.520;6.764;2023-04-25T02:11:22;11.20;;;4.38;;
26502;SDS011;14177;51.520;6.764;2023-04-25T02:14:12;7.53;;;3.30;;
26502;SDS011;14177;51.520;6.764;2023-04-25T02:16:49;13.82;;;4.00;;
26502;SDS011;14177;51.520;6.764;2023-04-25T02:19:17;14.40;;;4.00;;
26502;SDS011;14177;51.520;6.764;2023-04-25T02:21:46;11.13;;;3.30;;
26502;SDS011;14177;51.520;6.764;2023-04-25T02:24:13;14.77;;;4.20;;
26502;SDS011;14177;51.520;6.764;2023-04-25T02:26:40;13.35;;;4.13;;
26502;SDS011;14177;51.520;6.764;2023-04-25T02:29:08;10.45;;;3.95;;
26502;SDS011;14177;51.520;6.764;2023-04-25T02:31:36;9.20;;;4.10;;
26502;SDS011;14177;51.520;6.764;2023-04-25T02:34:03;10.57;;;3.50;;
26502;SDS011;14177;51.520;6.764;2023-04-25T02:36:35;8.32;;;3.83;;
26502;SDS011;14177;51.520;6.764;2023-04-25T02:39:02;11.30;;;3.35;;
26502;SDS011;14177;51.520;6.764;2023-04-25T02:41:29;10.00;;;3.38;;
26502;SDS011;14177;51.520;6.764;2023-04-25T02:43:56;8.52;;;3.20;;
26502;SDS011;14177;51.520;6.764;2023-04-25T02:46:23;8.15;;;3.40;;
26502;SDS011;14177;51.520;6.764;2023-04-25T02:49:04;10.77;;;3.47;;
26502;SDS011;14177;51.520;6.764;2023-04-25T02:51:33;12.15;;;3.50;;
26502;SDS011;14177;51.520;6.764;2023-04-25T02:54:00;10.43;;;3.75;;
26502;SDS011;14177;51.520;6.764;2023-04-25T02:56:27;10.98;;;3.22;;
26502;SDS011;14177;51.520;6.764;2023-04-25T02:58:54;10.15;;;3.63;;
26502;SDS011;14177;51.520;6.764;2023-04-25T03:01:22;10.95;;;3.88;;
26502;SDS011;14177;51.520;6.764;2023-04-25T03:03:49;7.47;;;3.38;;
26502;SDS011;14177;51.520;6.764;2023-04-25T03:06:16;11.57;;;3.45;;
26502;SDS011;14177;51.520;6.764;2023-04-25T03:08:43;11.07;;;3.75;;
26502;SDS011;14177;51.520;6.764;2023-04-25T03:11:10;9.77;;;3.13;;
26502;SDS011;14177;51.520;6.764;2023-04-25T03:13:37;14.60;;;4.38;;
26502;SDS011;14177;51.520;6.764;2023-04-25T03:16:05;14.68;;;3.55;;
26502;SDS011;14177;51.520;6.764;2023-04-25T03:18:33;14.10;;;3.92;;
26502;SDS011;14177;51.520;6.764;2023-04-25T03:21:00;11.13;;;3.95;;
26502;SDS011;14177;51.520;6.764;2023-04-25T03:23:29;7.60;;;3.45;;
26502;SDS011;14177;51.520;6.764;2023-04-25T03:25:57;11.80;;;3.30;;
26502;SDS011;14177;51.520;6.764;2023-04-25T03:28:24;9.40;;;3.75;;
26502;SDS011;14177;51.520;6.764;2023-04-25T03:30:52;10.50;;;3.88;;
26502;SDS011;14177;51.520;6.764;2023-04-25T03:33:20;11.77;;;4.22;;
26502;SDS011;14177;51.520;6.764;2023-04-25T03:35:48;13.15;;;3.67;;
26502;SDS011;14177;51.520;6.764;2023-04-25T03:38:16;11.95;;;3.83;;
26502;SDS011;14177;51.520;6.764;2023-04-25T03:40:45;14.82;;;4.50;;
26502;SDS011;14177;51.520;6.764;2023-04-25T03:43:38;16.60;;;4.18;;
26502;SDS011;14177;51.520;6.764;2023-04-25T03:46:09;14.45;;;3.75;;
26502;SDS011;14177;51.520;6.764;2023-04-25T03:48:37;14.90;;;4.53;;
26502;SDS011;14177;51.520;6.764;2023-04-25T03:51:05;13.15;;;4.53;;
26502;SDS011;14177;51.520;6.764;2023-04-25T03:53:37;10.13;;;3.92;;
26502;SDS011;14177;51.520;6.764;2023-04-25T03:56:30;16.60;;;3.75;;
26502;SDS011;14177;51.520;6.764;2023-04-25T03:59:04;14.57;;;3.87;;
26502;SDS011;14177;51.520;6.764;2023-04-25T04:01:31;11.50;;;3.75;;
26502;SDS011;14177;51.520;6.764;2023-04-25T04:03:58;14.68;;;4.22;;
26502;SDS011;14177;51.520;6.764;2023-04-25T04:06:26;17.17;;;4.40;;
26502;SDS011;14177;51.520;6.764;2023-04-25T04:09:01;12.73;;;4.13;;
26502;SDS011;14177;51.520;6.764;2023-04-25T04:11:31;11.25;;;3.63;;
26502;SDS011;14177;51.520;6.764;2023-04-25T04:13:58;13.13;;;4.05;;
26502;SDS011;14177;51.520;6.764;2023-04-25T04:16:26;28.40;;;10.23;;
26502;SDS011;14177;51.520;6.764;2023-04-25T04:18:53;14.85;;;3.88;;
26502;SDS011;14177;51.520;6.764;2023-04-25T04:21:20;11.18;;;4.05;;
26502;SDS011;14177;51.520;6.764;2023-04-25T04:23:47;15.20;;;4.30;;
26502;SDS011;14177;51.520;6.764;2023-04-25T04:26:15;17.48;;;4.80;;
26502;SDS011;14177;51.520;6.764;2023-04-25T04:28:56;18.30;;;4.38;;
26502;SDS011;14177;51.520;6.764;2023-04-25T04:31:40;18.75;;;4.57;;
26502;SDS011;14177;51.520;6.764;2023-04-25T04:34:07;14.02;;;4.22;;
26502;SDS011;14177;51.520;6.764;2023-04-25T04:36:34;15.40;;;4.28;;
26502;SDS011;14177;51.520;6.764;2023-04-25T04:39:01;11.98;;;4.90;;
26502;SDS011;14177;51.520;6.764;2023-04-25T04:41:41;12.70;;;4.13;;
26502;SDS011;14177;51.520;6.764;2023-04-25T04:44:27;16.73;;;3.92;;
26502;SDS011;14177;51.520;6.764;2023-04-25T04:47:37;14.68;;;4.30;;
26502;SDS011;14177;51.520;6.764;2023-04-25T04:50:23;16.30;;;4.80;;
26502;SDS011;14177;51.520;6.764;2023-04-25T04:53:09;11.85;;;4.65;;
26502;SDS011;14177;51.520;6.764;2023-04-25T04:55:57;17.55;;;6.10;;
26502;SDS011;14177;51.520;6.764;2023-04-25T04:58:36;13.68;;;5.28;;
26502;SDS011;14177;51.520;6.764;2023-04-25T05:01:15;15.75;;;4.70;;
26502;SDS011;14177;51.520;6.764;2023-04-25T05:04:14;15.05;;;4.85;;
26502;SDS011;14177;51.520;6.764;2023-04-25T05:06:42;10.85;;;4.65;;
26502;SDS011;14177;51.520;6.764;2023-04-25T05:09:32;16.85;;;5.03;;
26502;SDS011;14177;51.520;6.764;2023-04-25T05:12:23;13.05;;;5.38;;
26502;SDS011;14177;51.520;6.764;2023-04-25T05:15:01;12.02;;;4.38;;
26502;SDS011;14177;51.520;6.764;2023-04-25T05:17:47;19.05;;;4.85;;
26502;SDS011;14177;51.520;6.764;2023-04-25T05:20:16;11.23;;;4.90;;
26502;SDS011;14177;51.520;6.764;2023-04-25T05:23:03;14.00;;;4.75;;
26502;SDS011;14177;51.520;6.764;2023-04-25T05:28:39;17.80;;;4.57;;
26502;SDS011;14177;51.520;6.764;2023-04-25T05:31:26;14.48;;;4.80;;
26502;SDS011;14177;51.520;6.764;2023-04-25T05:34:01;10.63;;;4.25;;
26502;SDS011;14177;51.520;6.764;2023-04-25T05:36:40;20.02;;;4.80;;
26502;SDS011;14177;51.520;6.764;2023-04-25T05:39:07;15.45;;;4.93;;
26502;SDS011;14177;51.520;6.764;2023-04-25T05:41:53;13.52;;;4.60;;
26502;SDS011;14177;51.520;6.764;2023-04-25T05:44:40;13.52;;;4.82;;
26502;SDS011;14177;51.520;6.764;2023-04-25T05:47:36;10.50;;;4.22;;
26502;SDS011;14177;51.520;6.764;2023-04-25T05:50:13;18.13;;;4.18;;
26502;SDS011;14177;51.520;6.764;2023-04-25T05:52:49;16.25;;;4.35;;
26502;SDS011;14177;51.520;6.764;2023-04-25T05:55:23;12.13;;;4.05;;
26502;SDS011;14177;51.520;6.764;2023-04-25T05:57:51;14.15;;;4.53;;
26502;SDS011;14177;51.520;6.764;2023-04-25T06:00:19;13.65;;;4.63;;
26502;SDS011;14177;51.520;6.764;2023-04-25T06:02:49;13.30;;;4.03;;
26502;SDS011;14177;51.520;6.764;2023-04-25T06:05:17;10.48;;;4.13;;
26502;SDS011;14177;51.520;6.764;2023-04-25T06:07:46;12.82;;;3.92;;
26502;SDS011;14177;51.520;6.764;2023-04-25T06:10:13;12.23;;;3.70;;
26502;SDS011;14177;51.520;6.764;2023-04-25T06:12:41;12.82;;;4.00;;
26502;SDS011;14177;51.520;6.764;2023-04-25T06:15:09;15.60;;;4.03;;
26502;SDS011;14177;51.520;6.764;2023-04-25T06:17:53;11.57;;;3.40;;
26502;SDS011;14177;51.520;6.764;2023-04-25T06:20:21;15.23;;;3.70;;
26502;SDS011;14177;51.520;6.764;2023-04-25T06:22:51;14.75;;;3.80;;
26502;SDS011;14177;51.520;6.764;2023-04-25T06:25:22;12.20;;;3.92;;
26502;SDS011;14177;51.520;6.764;2023-04-25T06:27:49;13.20;;;3.67;;
26502;SDS011;14177;51.520;6.764;2023-04-25T06:30:17;8.25;;;3.33;;
26502;SDS011;14177;51.520;6.764;2023-04-25T06:32:50;9.57;;;3.10;;
26502;SDS011;14177;51.520;6.764;2023-04-25T06:35:21;10.20;;;3.08;;
26502;SDS011;14177;51.520;6.764;2023-04-25T06:37:48;14.30;;;3.28;;
26502;SDS011;14177;51.520;6.764;2023-04-25T06:40:17;9.57;;;3.10;;
26502;SDS011;14177;51.520;6.764;2023-04-25T06:42:45;14.77;;;4.13;;
26502;SDS011;14177;51.520;6.764;2023-04-25T06:45:41;13.75;;;3.40;;
26502;SDS011;14177;51.520;6.764;2023-04-25T06:48:10;11.45;;;3.30;;
26502;SDS011;14177;51.520;6.764;2023-04-25T06:50:37;11.90;;;3.80;;
26502;SDS011;14177;51.520;6.764;2023-04-25T06:53:03;11.75;;;3.58;;
26502;SDS011;14177;51.520;6.764;2023-04-25T06:55:31;12.45;;;3.20;;
26502;SDS011;14177;51.520;6.764;2023-04-25T06:58:12;14.82;;;3.90;;
26502;SDS011;14177;51.520;6.764;2023-04-25T07:03:25;13.18;;;3.40;;
26502;SDS011;14177;51.520;6.764;2023-04-25T07:05:59;20.33;;;3.60;;
26502;SDS011;14177;51.520;6.764;2023-04-25T07:08:28;12.23;;;3.58;;
26502;SDS011;14177;51.520;6.764;2023-04-25T07:10:57;18.50;;;3.55;;
26502;SDS011;14177;51.520;6.764;2023-04-25T07:13:24;13.30;;;4.05;;
26502;SDS011;14177;51.520;6.764;2023-04-25T07:15:51;13.77;;;3.72;;
26502;SDS011;14177;51.520;6.764;2023-04-25T07:18:22;6.55;;;2.65;;
26502;SDS011;14177;51.520;6.764;2023-04-25T07:20:50;10.73;;;3.22;;
26502;SDS011;14177;51.520;6.764;2023-04-25T07:23:18;13.48;;;3.25;;
26502;SDS011;14177;51.520;6.764;2023-04-25T07:25:46;10.85;;;2.58;;
26502;SDS011;14177;51.520;6.764;2023-04-25T07:28:17;11.82;;;2.88;;
26502;SDS011;14177;51.520;6.764;2023-04-25T07:30:46;10.80;;;2.72;;
26502;SDS011;14177;51.520;6.764;2023-04-25T07:33:13;14.48;;;3.17;;
26502;SDS011;14177;51.520;6.764;2023-04-25T07:35:41;11.93;;;3.30;;
26502;SDS011;14177;51.520;6.764;2023-04-25T07:38:08;9.85;;;3.35;;
26502;SDS011;14177;51.520;6.764;2023-04-25T07:40:37;15.07;;;3.58;;
26502;SDS011;14177;51.520;6.764;2023-04-25T07:43:07;11.18;;;3.03;;
26502;SDS011;14177;51.520;6.764;2023-04-25T07:45:45;9.88;;;2.65;;
26502;SDS011;14177;51.520;6.764;2023-04-25T07:48:17;13.07;;;3.58;;
26502;SDS011;14177;51.520;6.764;2023-04-25T07:50:46;12.55;;;3.15;;
26502;SDS011;14177;51.520;6.764;2023-04-25T07:53:13;12.55;;;2.65;;
26502;SDS011;14177;51.520;6.764;2023-04-25T07:55:50;8.98;;;2.50;;
26502;SDS011;14177;51.520;6.764;2023-04-25T07:58:19;6.03;;;1.85;;
26502;SDS011;14177;51.520;6.764;2023-04-25T08:00:52;8.43;;;2.15;;
26502;SDS011;14177;51.520;6.764;2023-04-25T08:03:28;9.07;;;2.65;;
26502;SDS011;14177;51.520;6.764;2023-04-25T08:05:57;13.02;;;3.00;;
26502;SDS011;14177;51.520;6.764;2023-04-25T08:08:28;5.32;;;2.10;;
26502;SDS011;14177;51.520;6.764;2023-04-25T08:10:56;15.50;;;2.70;;
26502;SDS011;14177;51.520;6.764;2023-04-25T08:13:23;12.07;;;2.03;;
26502;SDS011;14177;51.520;6.764;2023-04-25T08:15:52;11.98;;;2.30;;
26502;SDS011;14177;51.520;6.764;2023-04-25T08:18:19;9.18;;;2.05;;
26502;SDS011;14177;51.520;6.764;2023-04-25T08:20:48;8.40;;;1.83;;
26502;SDS011;14177;51.520;6.764;2023-04-25T08:23:15;11.00;;;2.03;;
26502;SDS011;14177;51.520;6.764;2023-04-25T08:26:00;12.32;;;1.95;;
26502;SDS011;14177;51.520;6.764;2023-04-25T08:28:28;9.00;;;1.65;;
26502;SDS011;14177;51.520;6.764;2023-04-25T08:30:58;9.20;;;1.95;;
26502;SDS011;14177;51.520;6.764;2023-04-25T08:33:32;8.83;;;2.10;;
26502;SDS011;14177;51.520;6.764;2023-04-25T08:36:26;6.90;;;2.13;;
26502;SDS011;14177;51.520;6.764;2023-04-25T08:39:16;8.45;;;1.85;;
26502;SDS011;14177;51.520;6.764;2023-04-25T08:41:58;10.07;;;2.35;;
26502;SDS011;14177;51.520;6.764;2023-04-25T08:44:30;7.53;;;1.65;;
26502;SDS011;14177;51.520;6.764;2023-04-25T08:46:58;11.85;;;2.03;;
26502;SDS011;14177;51.520;6.764;2023-04-25T08:49:31;17.08;;;2.08;;
26502;SDS011;14177;51.520;6.764;2023-04-25T08:52:00;9.20;;;1.92;;
26502;SDS011;14177;51.520;6.764;2023-04-25T08:54:34;6.20;;;2.13;;
26502;SDS011;14177;51.520;6.764;2023-04-25T08:57:06;6.93;;;1.85;;
26502;SDS011;14177;51.520;6.764;2023-04-25T08:59:33;8.15;;;1.90;;
26502;SDS011;14177;51.520;6.764;2023-04-25T09:02:06;12.90;;;1.70;;
26502;SDS011;14177;51.520;6.764;2023-04-25T09:04:36;8.68;;;1.83;;
26502;SDS011;14177;51.520;6.764;2023-04-25T09:07:03;6.82;;;1.98;;
26502;SDS011;14177;51.520;6.764;2023-04-25T09:09:31;11.38;;;1.65;;
26502;SDS011;14177;51.520;6.764;2023-04-25T09:11:58;8.88;;;1.83;;
26502;SDS011;14177;51.520;6.764;2023-04-25T09:14:27;8.70;;;1.35;;
26502;SDS011;14177;51.520;6.764;2023-04-25T09:17:04;6.15;;;1.38;;
26502;SDS011;14177;51.520;6.764;2023-04-25T09:19:36;4.97;;;1.50;;
26502;SDS011;14177;51.520;6.764;2023-04-25T09:22:14;6.65;;;1.48;;
26502;SDS011;14177;51.520;6.764;2023-04-25T09:24:44;7.00;;;1.48;;
26502;SDS011;14177;51.520;6.764;2023-04-25T09:27:16;6.80;;;1.63;;
26502;SDS011;14177;51.520;6.764;2023-04-25T09:29:49;5.85;;;1.38;;
26502;SDS011;14177;51.520;6.764;2023-04-25T09:32:44;5.33;;;1.10;;
26502;SDS011;14177;51.520;6.764;2023-04-25T09:35:12;9.13;;;1.52;;
26502;SDS011;14177;51.520;6.764;2023-04-25T09:37:59;2.83;;;1.27;;
26502;SDS011;14177;51.520;6.764;2023-04-25T09:41:02;5.20;;;1.38;;
26502;SDS011;14177;51.520;6.764;2023-04-25T09:43:36;11.30;;;2.20;;
26502;SDS011;14177;51.520;6.764;2023-04-25T09:46:09;5.47;;;1.38;;
26502;SDS011;14177;51.520;6.764;2023-04-25T09:48:41;46.67;;;8.07;;
26502;SDS011;14177;51.520;6.764;2023-04-25T09:51:22;12.15;;;2.00;;
26502;SDS011;14177;51.520;6.764;2023-04-25T09:53:56;6.55;;;1.55;;
26502;SDS011;14177;51.520;6.764;2023-04-25T09:56:36;4.22;;;1.67;;
26502;SDS011;14177;51.520;6.764;2023-04-25T09:59:06;4.40;;;1.05;;
26502;SDS011;14177;51.520;6.764;2023-04-25T10:01:36;5.72;;;1.00;;
26502;SDS011;14177;51.520;6.764;2023-04-25T10:04:12;5.35;;;1.27;;
26502;SDS011;14177;51.520;6.764;2023-04-25T10:07:07;5.90;;;1.35;;
26502;SDS011;14177;51.520;6.764;2023-04-25T10:09:39;4.78;;;0.85;;
26502;SDS011;14177;51.520;6.764;2023-04-25T10:12:07;4.15;;;1.30;;
26502;SDS011;14177;51.520;6.764;2023-04-25T10:14:35;7.00;;;1.30;;
26502;SDS011;14177;51.520;6.764;2023-04-25T10:17:02;5.13;;;1.20;;
26502;SDS011;14177;51.520;6.764;2023-04-25T10:19:30;5.53;;;1.48;;
26502;SDS011;14177;51.520;6.764;2023-04-25T10:22:03;8.73;;;1.42;;
26502;SDS011;14177;51.520;6.764;2023-04-25T10:24:40;5.28;;;1.27;;
26502;SDS011;14177;51.520;6.764;2023-04-25T10:27:10;4.78;;;1.05;;
26502;SDS011;14177;51.520;6.764;2023-04-25T10:29:37;5.82;;;1.30;;
26502;SDS011;14177;51.520;6.764;2023-04-25T10:32:04;6.85;;;1.38;;
26502;SDS011;14177;51.520;6.764;2023-04-25T10:34:39;7.07;;;1.08;;
26502;SDS011;14177;51.520;6.764;2023-04-25T10:37:13;3.47;;;1.10;;
26502;SDS011;14177;51.520;6.764;2023-04-25T10:39:42;4.30;;;0.90;;
26502;SDS011;14177;51.520;6.764;2023-04-25T10:42:10;6.20;;;1.17;;
26502;SDS011;14177;51.520;6.764;2023-04-25T10:44:38;3.15;;;1.10;;
26502;SDS011;14177;51.520;6.764;2023-04-25T10:47:06;3.33;;;1.05;;
26502;SDS011;14177;51.520;6.764;2023-04-25T10:49:42;3.90;;;1.23;;
26502;SDS011;14177;51.520;6.764;2023-04-25T10:54:57;4.07;;;1.42;;
26502;SDS011;14177;51.520;6.764;2023-04-25T10:57:28;7.50;;;1.27;;
26502;SDS011;14177;51.520;6.764;2023-04-25T11:00:13;4.82;;;1.17;;
26502;SDS011;14177;51.520;6.764;2023-04-25T11:02:44;2.92;;;1.25;;
26502;SDS011;14177;51.520;6.764;2023-04-25T11:07:53;4.18;;;1.10;;
26502;SDS011;14177;51.520;6.764;2023-04-25T11:10:27;3.83;;;1.33;;
26502;SDS011;14177;51.520;6.764;2023-04-25T11:12:59;5.55;;;1.77;;
26502;SDS011;14177;51.520;6.764;2023-04-25T11:15:26;11.38;;;2.08;;
26502;SDS011;14177;51.520;6.764;2023-04-25T11:17:54;3.28;;;1.48;;
26502;SDS011;14177;51.520;6.764;2023-04-25T11:20:24;2.53;;;1.17;;
26502;SDS011;14177;51.520;6.764;2023-04-25T11:22:57;7.32;;;1.80;;
26502;SDS011;14177;51.520;6.764;2023-04-25T11:25:26;10.93;;;1.55;;
26502;SDS011;14177;51.520;6.764;2023-04-25T11:27:57;3.55;;;0.95;;
26502;SDS011;14177;51.520;6.764;2023-04-25T11:30:27;4.28;;;1.35;;
26502;SDS011;14177;51.520;6.764;2023-04-25T11:32:57;4.93;;;1.58;;
26502;SDS011;14177;51.520;6.764;2023-04-25T11:35:24;4.00;;;1.00;;
26502;SDS011;14177;51.520;6.764;2023-04-25T11:37:52;5.45;;;1.35;;
26502;SDS011;14177;51.520;6.764;2023-04-25T11:40:19;5.60;;;1.20;;
26502;SDS011;14177;51.520;6.764;2023-04-25T11:42:46;5.18;;;1.38;;
26502;SDS011;14177;51.520;6.764;2023-04-25T11:45:14;6.40;;;1.55;;
26502;SDS011;14177;51.520;6.764;2023-04-25T11:47:42;5.88;;;1.55;;
26502;SDS011;14177;51.520;6.764;2023-04-25T11:50:09;2.53;;;1.27;;
26502;SDS011;14177;51.520;6.764;2023-04-25T11:52:37;3.90;;;1.20;;
26502;SDS011;14177;51.520;6.764;2023-04-25T11:55:13;3.05;;;1.25;;
26502;SDS011;14177;51.520;6.764;2023-04-25T11:57:43;5.25;;;1.60;;
26502;SDS011;14177;51.520;6.764;2023-04-25T12:00:18;3.72;;;1.40;;
26502;SDS011;14177;51.520;6.764;2023-04-25T12:02:55;6.90;;;1.95;;
26502;SDS011;14177;51.520;6.764;2023-04-25T12:05:28;4.43;;;1.40;;
26502;SDS011;14177;51.520;6.764;2023-04-25T12:08:11;7.22;;;1.58;;
26502;SDS011;14177;51.520;6.764;2023-04-25T12:10:43;5.45;;;1.80;;
26502;SDS011;14177;51.520;6.764;2023-04-25T12:13:19;6.38;;;1.23;;
26502;SDS011;14177;51.520;6.764;2023-04-25T12:15:54;7.50;;;1.38;;
26502;SDS011;14177;51.520;6.764;2023-04-25T12:18:23;3.58;;;1.00;;
26502;SDS011;14177;51.520;6.764;2023-04-25T12:20:54;3.05;;;0.90;;
26502;SDS011;14177;51.520;6.764;2023-04-25T12:23:27;11.10;;;1.45;;
26502;SDS011;14177;51.520;6.764;2023-04-25T12:28:24;5.53;;;2.00;;
26502;SDS011;14177;51.520;6.764;2023-04-25T12:30:55;4.10;;;1.03;;
26502;SDS011;14177;51.520;6.764;2023-04-25T12:33:36;4.65;;;1.20;;
26502;SDS011;14177;51.520;6.764;2023-04-25T12:36:05;3.63;;;1.10;;
26502;SDS011;14177;51.520;6.764;2023-04-25T12:38:38;5.10;;;0.90;;
26502;SDS011;14177;51.520;6.764;2023-04-25T12:41:08;5.07;;;0.93;;
26502;SDS011;14177;51.520;6.764;2023-04-25T12:43:38;4.07;;;1.27;;
26502;SDS011;14177;51.520;6.764;2023-04-25T12:46:05;2.65;;;0.85;;
26502;SDS011;14177;51.520;6.764;2023-04-25T12:48:33;4.70;;;0.85;;
26502;SDS011;14177;51.520;6.764;2023-04-25T12:51:00;4.75;;;1.30;;
26502;SDS011;14177;51.520;6.764;2023-04-25T12:53:27;5.00;;;1.23;;
26502;SDS011;14177;51.520;6.764;2023-04-25T12:55:54;5.82;;;1.15;;
26502;SDS011;14177;51.520;6.764;2023-04-25T12:58:22;4.18;;;1.10;;
26502;SDS011;14177;51.520;6.764;2023-04-25T13:00:49;4.03;;;1.15;;
26502;SDS011;14177;51.520;6.764;2023-04-25T13:03:16;2.88;;;0.90;;
26502;SDS011;14177;51.520;6.764;2023-04-25T13:05:44;3.55;;;1.13;;
26502;SDS011;14177;51.520;6.764;2023-04-25T13:08:11;5.72;;;1.10;;
26502;SDS011;14177;51.520;6.764;2023-04-25T13:10:38;4.50;;;1.42;;
26502;SDS011;14177;51.520;6.764;2023-04-25T13:13:06;3.15;;;0.90;;
26502;SDS011;14177;51.520;6.764;2023-04-25T13:15:33;2.40;;;0.95;;
26502;SDS011;14177;51.520;6.764;2023-04-25T13:18:00;2.00;;;0.98;;
26502;SDS011;14177;51.520;6.764;2023-04-25T13:20:27;8.52;;;1.15;;
26502;SDS011;14177;51.520;6.764;2023-04-25T13:22:54;3.83;;;1.00;;
26502;SDS011;14177;51.520;6.764;2023-04-25T13:25:21;3.33;;;1.10;;
26502;SDS011;14177;51.520;6.764;2023-04-25T13:27:48;7.13;;;1.30;;
26502;SDS011;14177;51.520;6.764;2023-04-25T13:30:15;3.70;;;0.80;;
26502;SDS011;14177;51.520;6.764;2023-04-25T13:32:42;4.65;;;1.25;;
26502;SDS011;14177;51.520;6.764;2023-04-25T13:35:11;8.02;;;0.90;;
26502;SDS011;14177;51.520;6.764;2023-04-25T13:37:40;3.60;;;0.73;;
26502;SDS011;14177;51.520;6.764;2023-04-25T13:40:08;2.55;;;0.90;;
26502;SDS011;14177;51.520;6.764;2023-04-25T13:42:37;2.30;;;1.00;;
26502;SDS011;14177;51.520;6.764;2023-04-25T13:45:06;2.65;;;0.70;;
26502;SDS011;14177;51.520;6.764;2023-04-25T13:47:34;1.52;;;0.65;;
26502;SDS011;14177;51.520;6.764;2023-04-25T13:50:02;7.65;;;1.00;;
26502;SDS011;14177;51.520;6.764;2023-04-25T13:52:31;5.72;;;1.00;;
26502;SDS011;14177;51.520;6.764;2023-04-25T13:54:59;5.97;;;1.00;;
26502;SDS011;14177;51.520;6.764;2023-04-25T13:57:26;1.80;;;0.60;;
26502;SDS011;14177;51.520;6.764;2023-04-25T13:59:53;3.80;;;0.90;;
26502;SDS011;14177;51.520;6.764;2023-04-25T14:02:21;2.83;;;1.02;;
26502;SDS011;14177;51.520;6.764;2023-04-25T14:04:48;3.88;;;0.93;;
26502;SDS011;14177;51.520;6.764;2023-04-25T14:07:15;4.25;;;0.90;;
26502;SDS011;14177;51.520;6.764;2023-04-25T14:09:42;3.47;;;0.82;;
26502;SDS011;14177;51.520;6.764;2023-04-25T14:12:09;6.57;;;1.50;;
26502;SDS011;14177;51.520;6.764;2023-04-25T14:14:37;3.72;;;1.00;;
26502;SDS011;14177;51.520;6.764;2023-04-25T14:17:04;2.47;;;0.65;;
26502;SDS011;14177;51.520;6.764;2023-04-25T14:19:32;2.85;;;0.63;;
26502;SDS011;14177;51.520;6.764;2023-04-25T14:22:00;2.67;;;0.70;;
26502;SDS011;14177;51.520;6.764;2023-04-25T14:24:27;3.03;;;1.00;;
26502;SDS011;14177;51.520;6.764;2023-04-25T14:26:54;2.92;;;1.05;;
26502;SDS011;14177;51.520;6.764;2023-04-25T14:29:21;3.15;;;0.80;;
26502;SDS011;14177;51.520;6.764;2023-04-25T14:31:48;3.55;;;0.80;;
26502;SDS011;14177;51.520;6.764;2023-04-25T14:34:15;1.85;;;0.77;;
26502;SDS011;14177;51.520;6.764;2023-04-25T14:36:42;6.25;;;0.80;;
26502;SDS011;14177;51.520;6.764;2023-04-25T14:39:10;5.03;;;0.98;;
26502;SDS011;14177;51.520;6.764;2023-04-25T14:41:38;6.10;;;1.30;;
26502;SDS011;14177;51.520;6.764;2023-04-25T14:44:05;6.95;;;1.40;;
26502;SDS011;14177;51.520;6.764;2023-04-25T14:46:32;3.35;;;1.00;;
26502;SDS011;14177;51.520;6.764;2023-04-25T14:49:00;4.30;;;1.05;;
26502;SDS011;14177;51.520;6.764;2023-04-25T14:51:27;5.95;;;1.30;;
26502;SDS011;14177;51.520;6.764;2023-04-25T14:53:55;3.60;;;0.88;;
26502;SDS011;14177;51.520;6.764;2023-04-25T14:56:22;5.13;;;0.85;;
26502;SDS011;14177;51.520;6.764;2023-04-25T14:58:49;4.10;;;1.02;;
26502;SDS011;14177;51.520;6.764;2023-04-25T15:01:16;5.78;;;0.93;;
26502;SDS011;14177;51.520;6.764;2023-04-25T15:03:44;4.35;;;0.88;;
26502;SDS011;14177;51.520;6.764;2023-04-25T15:06:12;6.32;;;0.93;;
26502;SDS011;14177;51.520;6.764;2023-04-25T15:08:38;4.60;;;0.90;;
26502;SDS011;14177;51.520;6.764;2023-04-25T15:11:06;4.38;;;0.80;;
26502;SDS011;14177;51.520;6.764;2023-04-25T15:13:33;3.42;;;0.70;;
26502;SDS011;14177;51.520;6.764;2023-04-25T15:16:01;3.60;;;0.90;;
26502;SDS011;14177;51.520;6.764;2023-04-25T15:18:28;3.63;;;1.17;;